메인 페이지
METAR-TAF:

METAR-TAF

공항 :

아카바, 요르단

위도: 29-38N, 경도: 035-01E, 고도: 53m

현재 날씨관측

예보는 1 시간 9분 전, 04:00시(UTC)에 발표되었습니다.
6kt
온도 27°C
습도 42%
기압 1005 hPa
시정 10km 이상
1500m 미만 상공 구름 및 적란운 없음

METAR: OJAQ 040400Z 01006KT CAVOK 27/13 Q1005 NOSIG

시각: 08:09 (05:09 UTC)

예보

예보는 6 시간 56분 전, 22:13시(UTC)에 발표되었습니다.
예보 대상 시간: 04일 00시부터 05일 06시까지 (UTC)
12kt
시정 10km 이상
1500m 미만 상공 구름 및 적란운 없음

TAF: OJAQ 032213Z 0400/0506 36012KT CAVOK

4,000개 이상의 공항 관측 자료 및 예보 (METAR 및 TAF 보고).

지도상에서 검색 가능한 기상관측소가 노란 점과 빨간 점으로 표시되어 있습니다.

기상관측소 명을 보려면 표시 위로 마우스를 이동하세요.

날씨 관측과 예보를 보려면 클릭하세요.

지도 변경 : 확대하려면 엑스 표시가 있는 녹색 버튼, 축소하려면 빼기 표시가 있는 녹색 버튼, 다음 페이지의 지도를 보려면 녹색 화살표를 클릭하세요.


METAR-TAF: